createdAt,value
2017-10-17T00:00:48.561Z,12.63
2017-10-17T00:03:17.042Z,12.40
2017-10-17T00:05:45.148Z,12.02
2017-10-17T00:08:13.276Z,12.68
2017-10-17T00:10:41.398Z,12.10
2017-10-17T00:13:09.526Z,12.55
2017-10-17T00:15:37.630Z,12.65
2017-10-17T00:18:07.086Z,13.02
2017-10-17T00:20:35.097Z,12.57
2017-10-17T00:23:03.202Z,12.52
2017-10-17T00:25:31.323Z,11.70
2017-10-17T00:27:59.412Z,11.57
2017-10-17T00:30:28.221Z,11.63
2017-10-17T00:32:58.800Z,12.82
2017-10-17T00:35:31.871Z,12.10
2017-10-17T00:38:01.619Z,11.52
2017-10-17T00:40:29.787Z,11.68
2017-10-17T00:43:11.025Z,11.20
2017-10-17T00:45:39.353Z,11.20
2017-10-17T00:48:08.807Z,12.93
2017-10-17T00:50:38.055Z,10.68
2017-10-17T00:53:06.149Z,11.43
2017-10-17T00:55:35.010Z,11.30
2017-10-17T00:58:03.301Z,12.90
2017-10-17T01:00:31.406Z,10.35
2017-10-17T01:02:59.538Z,12.63
2017-10-17T01:05:28.415Z,10.70
2017-10-17T01:07:56.726Z,12.43
2017-10-17T01:10:24.875Z,11.57
2017-10-17T01:12:53.152Z,11.70
2017-10-17T01:15:21.275Z,11.57
2017-10-17T01:17:50.738Z,11.65
2017-10-17T01:20:22.915Z,12.15
2017-10-17T01:22:52.442Z,11.75
2017-10-17T01:25:20.935Z,12.23
2017-10-17T01:27:50.402Z,11.95
2017-10-17T01:30:18.499Z,13.05
2017-10-17T01:32:47.347Z,12.23
2017-10-17T01:35:16.241Z,11.70
2017-10-17T01:37:44.358Z,11.80
2017-10-17T01:40:20.886Z,12.00
2017-10-17T01:42:49.076Z,11.15
2017-10-17T01:45:17.970Z,12.35
2017-10-17T01:47:46.478Z,10.90
2017-10-17T01:50:15.175Z,13.23
2017-10-17T01:52:43.420Z,12.15
2017-10-17T01:55:15.911Z,12.20
2017-10-17T01:58:03.070Z,11.43
2017-10-17T02:00:31.163Z,12.18
2017-10-17T02:02:59.280Z,10.50
2017-10-17T02:05:28.512Z,12.20
2017-10-17T02:07:57.998Z,11.60
2017-10-17T02:10:26.789Z,11.90
2017-10-17T02:12:57.674Z,10.80
2017-10-17T02:15:25.783Z,11.35
2017-10-17T02:18:03.309Z,12.68
2017-10-17T02:20:31.428Z,11.93
2017-10-17T02:23:00.535Z,11.75
2017-10-17T02:25:30.108Z,12.52
2017-10-17T02:28:17.251Z,12.25
2017-10-17T02:30:48.926Z,12.82
2017-10-17T02:33:17.891Z,11.45
2017-10-17T02:35:45.985Z,11.40
2017-10-17T02:38:15.643Z,11.40
2017-10-17T02:40:44.762Z,12.27
2017-10-17T02:43:14.672Z,12.27
2017-10-17T02:45:42.853Z,13.15
2017-10-17T02:51:20.875Z,12.18
2017-10-17T02:53:50.523Z,12.15
2017-10-17T02:56:19.967Z,12.57
2017-10-17T02:58:48.005Z,14.05
2017-10-17T03:01:35.143Z,12.02
2017-10-17T03:04:03.355Z,11.25
2017-10-17T03:06:31.448Z,12.05
2017-10-17T03:08:59.564Z,12.98
2017-10-17T03:11:29.207Z,12.63
2017-10-17T03:13:59.115Z,12.48
2017-10-17T03:16:27.239Z,13.05
2017-10-17T03:18:55.367Z,12.93
2017-10-17T03:21:24.032Z,12.32
2017-10-17T03:23:54.957Z,12.43
2017-10-17T03:26:23.059Z,12.35
2017-10-17T03:28:51.561Z,12.80
2017-10-17T03:31:22.367Z,12.10
2017-10-17T03:33:51.822Z,11.80
2017-10-17T03:36:19.839Z,11.75
2017-10-17T03:38:49.383Z,12.65
2017-10-17T03:44:14.826Z,12.30
2017-10-17T03:46:45.614Z,13.70
2017-10-17T03:49:24.531Z,12.05
2017-10-17T03:51:52.742Z,12.60
2017-10-17T03:54:28.514Z,13.80
2017-10-17T03:56:57.584Z,10.40
2017-10-17T03:59:25.680Z,12.27
2017-10-17T04:01:54.651Z,12.25
2017-10-17T04:07:43.668Z,12.37
2017-10-17T04:10:23.797Z,11.15
2017-10-17T04:13:13.673Z,13.50
2017-10-17T04:15:41.848Z,12.63
2017-10-17T04:18:23.112Z,12.52
2017-10-17T04:20:59.752Z,12.45
2017-10-17T04:23:34.442Z,13.20
2017-10-17T04:26:02.523Z,11.82
2017-10-17T04:28:38.282Z,12.07
2017-10-17T04:31:24.634Z,13.13
2017-10-17T04:34:09.552Z,13.45
2017-10-17T04:50:04.339Z,14.90
2017-10-17T04:52:49.080Z,15.40
2017-10-17T04:55:31.491Z,14.20
2017-10-17T04:58:01.109Z,13.55
2017-10-17T05:00:30.336Z,15.38
2017-10-17T05:03:00.387Z,14.65
2017-10-17T05:08:46.800Z,14.63
2017-10-17T05:11:16.514Z,14.70
2017-10-17T05:27:27.579Z,14.98
2017-10-17T05:30:04.159Z,16.23
2017-10-17T05:32:33.795Z,14.80
2017-10-17T05:35:03.324Z,15.15
2017-10-17T05:37:32.594Z,15.25
2017-10-17T05:40:12.427Z,15.48
2017-10-17T05:42:40.540Z,14.02
2017-10-17T05:45:12.861Z,13.77
2017-10-17T05:47:45.936Z,14.90
2017-10-17T05:50:28.932Z,15.18
2017-10-17T05:52:57.036Z,16.42
2017-10-17T05:55:25.899Z,14.75
2017-10-17T05:57:54.058Z,15.05
2017-10-17T06:00:22.913Z,15.68
2017-10-17T06:02:51.099Z,13.57
2017-10-17T06:05:19.208Z,13.48
2017-10-17T06:07:47.314Z,14.77
2017-10-17T06:10:15.427Z,15.35
2017-10-17T06:12:44.325Z,13.75
2017-10-17T06:15:12.424Z,13.38
2017-10-17T06:17:40.521Z,15.02
2017-10-17T06:20:08.649Z,14.40
2017-10-17T06:22:37.152Z,12.73
2017-10-17T06:25:05.360Z,15.35
2017-10-17T06:27:33.479Z,13.62
2017-10-17T06:30:02.740Z,14.38
2017-10-17T06:32:30.869Z,15.35
2017-10-17T06:34:58.975Z,14.27
2017-10-17T06:37:27.087Z,12.82
2017-10-17T06:39:55.206Z,14.80
2017-10-17T06:42:23.309Z,14.45
2017-10-17T06:44:51.429Z,13.25
2017-10-17T06:47:19.547Z,15.02
2017-10-17T06:49:47.639Z,16.60
2017-10-17T06:52:15.748Z,17.45
2017-10-17T06:54:43.849Z,22.55
2017-10-17T06:57:11.974Z,17.58
2017-10-17T06:59:41.211Z,18.40
2017-10-17T07:02:09.333Z,17.25
2017-10-17T07:04:37.496Z,18.05
2017-10-17T07:07:05.591Z,17.62
2017-10-17T07:09:35.026Z,17.30
2017-10-17T07:12:03.046Z,16.92
2017-10-17T07:14:31.160Z,17.65
2017-10-17T07:16:59.673Z,18.58
2017-10-17T07:19:27.766Z,16.73
2017-10-17T07:21:55.880Z,17.35
2017-10-17T07:24:23.980Z,19.42
2017-10-17T07:26:52.080Z,17.65
2017-10-17T07:29:20.203Z,18.52
2017-10-17T07:31:48.419Z,19.37
2017-10-17T07:34:17.647Z,18.73
2017-10-17T07:36:45.759Z,17.62
2017-10-17T07:39:13.883Z,18.12
2017-10-17T07:41:41.989Z,17.62
2017-10-17T07:44:10.869Z,16.00
2017-10-17T07:46:39.779Z,16.25
2017-10-17T07:49:07.899Z,16.05
2017-10-17T07:51:36.008Z,18.10
2017-10-17T07:54:04.877Z,18.50
2017-10-17T07:56:32.968Z,19.00
2017-10-17T07:59:02.216Z,18.73
2017-10-17T08:01:30.319Z,18.75
2017-10-17T08:03:58.435Z,18.30
2017-10-17T08:06:26.534Z,18.98
2017-10-17T08:08:54.650Z,19.58
2017-10-17T08:11:22.748Z,19.35
2017-10-17T08:13:51.648Z,18.23
2017-10-17T08:16:20.671Z,18.25
2017-10-17T08:18:48.782Z,18.65
2017-10-17T08:21:16.891Z,17.65
2017-10-17T08:23:44.999Z,18.90
2017-10-17T08:26:13.133Z,20.50
2017-10-17T08:28:41.978Z,21.52
2017-10-17T08:31:10.112Z,25.98
2017-10-17T08:33:38.232Z,26.92
2017-10-17T08:36:06.360Z,28.62
2017-10-17T08:38:35.214Z,27.85
2017-10-17T08:41:04.093Z,27.73
2017-10-17T08:43:32.948Z,27.13
2017-10-17T08:46:01.064Z,23.27
2017-10-17T08:48:29.944Z,21.92
2017-10-17T08:50:58.057Z,23.55
2017-10-17T08:53:26.564Z,23.00
2017-10-17T08:55:54.623Z,20.33
2017-10-17T08:58:22.728Z,19.23
2017-10-17T09:00:50.824Z,19.95
2017-10-17T09:03:18.957Z,19.37
2017-10-17T09:05:47.046Z,18.73
2017-10-17T09:08:16.285Z,16.65
2017-10-17T09:10:44.422Z,17.40
2017-10-17T09:13:12.527Z,16.17
2017-10-17T09:15:41.383Z,15.55
2017-10-17T09:18:09.500Z,16.55
2017-10-17T09:20:37.588Z,16.70
2017-10-17T09:23:05.728Z,16.90
2017-10-17T09:25:34.984Z,17.25
2017-10-17T09:28:03.097Z,16.70
2017-10-17T09:30:31.272Z,18.10
2017-10-17T09:32:59.375Z,17.80
2017-10-17T09:35:27.477Z,18.50
2017-10-17T09:37:55.563Z,19.12
2017-10-17T09:40:23.683Z,19.45
2017-10-17T09:42:51.788Z,19.42
2017-10-17T09:45:19.900Z,21.45
2017-10-17T09:47:47.996Z,21.92
2017-10-17T09:50:16.106Z,21.17
2017-10-17T09:52:44.200Z,21.35
2017-10-17T09:55:12.329Z,19.90
2017-10-17T09:57:40.420Z,21.77
2017-10-17T10:00:08.528Z,19.25
2017-10-17T10:02:36.639Z,19.25
2017-10-17T10:05:04.748Z,19.52
2017-10-17T10:07:33.261Z,19.98
2017-10-17T10:10:01.381Z,19.45
2017-10-17T10:12:29.472Z,19.25
2017-10-17T10:14:57.603Z,19.73
2017-10-17T10:17:25.714Z,17.92
2017-10-17T10:19:53.803Z,18.73
2017-10-17T10:22:21.938Z,19.67
2017-10-17T10:24:50.029Z,18.33
2017-10-17T10:27:18.140Z,17.20
2017-10-17T10:29:46.245Z,17.23
2017-10-17T10:32:14.353Z,18.00
2017-10-17T10:34:42.457Z,17.58
2017-10-17T10:37:10.579Z,17.23
2017-10-17T10:39:38.685Z,15.05
2017-10-17T10:42:06.782Z,16.15
2017-10-17T10:44:35.657Z,16.95
2017-10-17T10:47:03.773Z,15.73
2017-10-17T10:49:31.908Z,16.55
2017-10-17T10:52:00.025Z,15.88
2017-10-17T10:54:28.123Z,15.38
2017-10-17T10:56:57.747Z,16.25
2017-10-17T10:59:25.846Z,15.73
2017-10-17T11:01:55.107Z,15.75
2017-10-17T11:04:23.218Z,15.05
2017-10-17T11:06:52.677Z,14.15
2017-10-17T11:09:20.700Z,14.15
2017-10-17T11:11:49.573Z,13.18
2017-10-17T11:14:17.696Z,14.40
2017-10-17T11:16:45.793Z,13.80
2017-10-17T11:19:13.893Z,12.93
2017-10-17T11:21:42.008Z,12.30
2017-10-17T11:24:10.133Z,13.55
2017-10-17T11:26:39.369Z,13.57
2017-10-17T11:29:07.493Z,12.85
2017-10-17T11:31:37.087Z,11.40
2017-10-17T11:34:05.234Z,12.45
2017-10-17T11:36:33.331Z,10.75
2017-10-17T11:39:01.433Z,10.23
2017-10-17T11:41:41.316Z,9.85
2017-10-17T11:44:12.340Z,10.95
2017-10-17T11:46:40.459Z,18.70
2017-10-17T11:49:08.622Z,16.60
2017-10-17T11:51:37.514Z,15.65
2017-10-17T11:54:05.613Z,16.80
2017-10-17T11:56:34.128Z,14.73
2017-10-17T11:59:02.975Z,10.43
2017-10-17T12:01:31.088Z,10.75
2017-10-17T12:03:59.181Z,9.40
2017-10-17T12:06:28.495Z,11.95
2017-10-17T12:08:56.604Z,12.45
2017-10-17T12:11:24.701Z,11.40
2017-10-17T12:13:52.800Z,10.55
2017-10-17T12:16:20.898Z,11.38
2017-10-17T12:18:49.022Z,10.65
2017-10-17T12:21:18.247Z,9.65
2017-10-17T12:23:47.118Z,10.20
2017-10-17T12:26:15.239Z,10.10
2017-10-17T12:28:43.341Z,10.48
2017-10-17T12:31:11.436Z,9.60
2017-10-17T12:33:40.697Z,9.57
2017-10-17T12:36:08.796Z,11.12
2017-10-17T12:38:36.887Z,9.57
2017-10-17T12:41:05.753Z,10.10
2017-10-17T12:43:33.855Z,8.88
2017-10-17T12:46:02.359Z,10.40
2017-10-17T12:48:30.451Z,10.50
2017-10-17T12:50:58.574Z,10.63
2017-10-17T12:53:26.679Z,9.50
2017-10-17T12:55:54.781Z,9.63
2017-10-17T12:58:22.872Z,8.70
2017-10-17T13:00:50.996Z,8.88
2017-10-17T13:03:19.103Z,9.93
2017-10-17T13:05:47.212Z,9.57
2017-10-17T13:08:16.795Z,9.60
2017-10-17T13:10:44.900Z,8.77
2017-10-17T13:13:14.118Z,7.20
2017-10-17T13:15:42.221Z,8.40
2017-10-17T13:18:11.062Z,8.02
2017-10-17T13:20:40.667Z,8.85
2017-10-17T13:23:09.511Z,8.55
2017-10-17T13:25:37.639Z,8.65
2017-10-17T13:28:05.720Z,8.95
2017-10-17T13:30:33.808Z,8.82
2017-10-17T13:33:01.932Z,8.70
2017-10-17T13:35:30.035Z,7.80
2017-10-17T13:37:59.294Z,8.88
2017-10-17T13:40:27.380Z,7.82
2017-10-17T13:42:55.864Z,8.57
2017-10-17T13:45:24.094Z,9.43
2017-10-17T13:47:52.185Z,8.48
2017-10-17T13:50:20.290Z,8.27
2017-10-17T13:52:48.391Z,9.70
2017-10-17T13:55:16.490Z,8.80
2017-10-17T13:57:44.625Z,8.82
2017-10-17T14:00:12.683Z,9.90
2017-10-17T14:02:40.819Z,7.82
2017-10-17T14:05:08.906Z,8.45
2017-10-17T14:07:37.811Z,9.82
2017-10-17T14:10:06.215Z,7.90
2017-10-17T14:12:34.330Z,9.75
2017-10-17T14:15:02.511Z,9.02
2017-10-17T14:17:30.647Z,9.05
2017-10-17T14:19:58.739Z,9.45
2017-10-17T14:22:27.224Z,10.18
2017-10-17T14:24:55.329Z,9.25
2017-10-17T14:27:23.415Z,9.48
2017-10-17T14:29:52.293Z,11.20
2017-10-17T14:32:21.538Z,8.60
2017-10-17T14:34:49.740Z,8.30
2017-10-17T14:37:17.829Z,8.85
2017-10-17T14:39:45.913Z,8.63
2017-10-17T14:42:15.169Z,8.95
2017-10-17T14:44:44.387Z,8.25
2017-10-17T14:47:13.275Z,9.40
2017-10-17T14:49:41.394Z,8.82
2017-10-17T14:52:09.493Z,9.02
2017-10-17T14:54:37.581Z,8.60
2017-10-17T14:57:07.247Z,8.60
2017-10-17T14:59:36.104Z,9.45
2017-10-17T15:02:04.217Z,9.90
2017-10-17T15:04:32.300Z,9.40
2017-10-17T15:07:00.410Z,9.70
2017-10-17T15:09:28.505Z,10.13
2017-10-17T15:11:56.603Z,9.10
2017-10-17T15:14:25.848Z,8.38
2017-10-17T15:16:53.968Z,8.13
2017-10-17T15:19:22.833Z,8.48
2017-10-17T15:21:50.924Z,8.55
2017-10-17T15:24:19.030Z,9.50
2017-10-17T15:26:47.128Z,7.60
2017-10-17T15:29:15.235Z,8.50
2017-10-17T15:31:43.351Z,9.68
2017-10-17T15:34:11.848Z,9.48
2017-10-17T15:36:39.964Z,8.35
2017-10-17T15:39:08.140Z,10.23
2017-10-17T15:41:36.240Z,11.95
2017-10-17T15:44:04.367Z,10.40
2017-10-17T15:46:33.307Z,10.38
2017-10-17T15:49:01.384Z,9.88
2017-10-17T15:51:29.484Z,8.60
2017-10-17T15:53:57.594Z,9.10
2017-10-17T15:56:25.679Z,7.93
2017-10-17T15:58:54.554Z,9.20
2017-10-17T16:01:22.637Z,7.78
2017-10-17T16:03:51.884Z,8.70
2017-10-17T16:06:19.989Z,7.78
2017-10-17T16:08:48.084Z,8.90
2017-10-17T16:11:16.961Z,7.82
2017-10-17T16:13:45.439Z,9.13
2017-10-17T16:16:15.059Z,8.25
2017-10-17T16:18:43.154Z,8.52
2017-10-17T16:21:11.242Z,8.07
2017-10-17T16:23:39.319Z,8.50
2017-10-17T16:26:07.447Z,7.97
2017-10-17T16:28:37.035Z,8.90
2017-10-17T16:31:05.946Z,9.68
2017-10-17T16:33:34.009Z,9.07
2017-10-17T16:36:02.083Z,9.80
2017-10-17T16:38:30.183Z,9.60
2017-10-17T16:40:59.031Z,8.95
2017-10-17T16:43:27.145Z,8.50
2017-10-17T16:45:55.227Z,9.25
2017-10-17T16:48:23.336Z,9.95
2017-10-17T16:50:52.776Z,8.52
2017-10-17T16:53:21.544Z,9.30
2017-10-17T16:55:49.619Z,9.60
2017-10-17T16:58:17.727Z,10.00
2017-10-17T17:00:45.807Z,9.45
2017-10-17T17:03:13.912Z,8.90
2017-10-17T17:05:42.004Z,9.85
2017-10-17T17:08:10.112Z,9.05
2017-10-17T17:10:38.964Z,8.73
2017-10-17T17:13:07.075Z,9.05
2017-10-17T17:15:35.934Z,9.07
2017-10-17T17:18:04.019Z,8.70
2017-10-17T17:20:32.125Z,9.18
2017-10-17T17:23:00.210Z,9.80
2017-10-17T17:25:29.828Z,10.00
2017-10-17T17:27:57.938Z,10.25
2017-10-17T17:30:27.382Z,9.98
2017-10-17T17:32:56.263Z,9.68
2017-10-17T17:35:25.115Z,9.80
2017-10-17T17:37:53.607Z,11.05
2017-10-17T17:40:23.223Z,10.40
2017-10-17T17:42:51.323Z,9.30
2017-10-17T17:45:20.781Z,10.75
2017-10-17T17:47:48.792Z,12.43
2017-10-17T17:50:16.899Z,10.55
2017-10-17T17:52:46.528Z,12.73
2017-10-17T17:55:14.622Z,12.13
2017-10-17T17:57:42.742Z,10.52
2017-10-17T18:00:10.848Z,13.70
2017-10-17T18:02:40.823Z,14.07
2017-10-17T18:05:10.474Z,13.85
2017-10-17T18:07:41.174Z,14.60
2017-10-17T18:10:10.070Z,15.50
2017-10-17T18:12:38.174Z,15.50
2017-10-17T18:15:07.432Z,14.65
2017-10-17T18:17:36.908Z,13.95
2017-10-17T18:20:05.020Z,13.65
2017-10-17T18:22:35.405Z,13.18
2017-10-17T18:25:04.272Z,13.70
2017-10-17T18:27:32.422Z,13.40
2017-10-17T18:30:00.514Z,13.65
2017-10-17T18:32:29.747Z,13.75
2017-10-17T18:34:59.388Z,12.45
2017-10-17T18:37:28.528Z,11.70
2017-10-17T18:39:56.655Z,12.05
2017-10-17T18:42:24.758Z,12.23
2017-10-17T18:44:52.852Z,12.50
2017-10-17T18:47:25.932Z,10.60
2017-10-17T18:49:54.884Z,11.50
2017-10-17T18:52:23.715Z,12.93
2017-10-17T18:54:51.823Z,13.23
2017-10-17T18:57:21.425Z,11.98
2017-10-17T18:59:49.941Z,13.25
2017-10-17T19:02:18.031Z,13.00
2017-10-17T19:04:46.921Z,12.45
2017-10-17T19:07:16.379Z,12.37
2017-10-17T19:09:46.128Z,11.75
2017-10-17T19:12:14.626Z,12.50
2017-10-17T19:14:44.268Z,12.30
2017-10-17T19:17:12.411Z,11.88
2017-10-17T19:19:40.507Z,12.30
2017-10-17T19:22:08.600Z,12.20
2017-10-17T19:24:37.504Z,11.30
2017-10-17T19:27:07.117Z,13.10
2017-10-17T19:29:35.208Z,11.55
2017-10-17T19:32:03.322Z,11.63
2017-10-17T19:34:31.436Z,11.48
2017-10-17T19:37:01.053Z,11.88
2017-10-17T19:39:29.159Z,11.20
2017-10-17T19:41:57.280Z,11.88
2017-10-17T19:44:26.326Z,12.23
2017-10-17T19:46:55.801Z,11.65
2017-10-17T19:49:23.812Z,13.02
2017-10-17T19:51:53.077Z,11.40
2017-10-17T19:54:22.312Z,10.45
2017-10-17T19:56:50.407Z,10.75
2017-10-17T19:59:19.296Z,11.93
2017-10-17T20:01:47.401Z,10.55
2017-10-17T20:04:16.648Z,11.70
2017-10-17T20:06:44.740Z,11.30
2017-10-17T20:09:12.840Z,10.70
2017-10-17T20:11:40.955Z,12.50
2017-10-17T20:14:12.896Z,10.70
2017-10-17T20:16:41.433Z,10.20
2017-10-17T20:19:10.557Z,11.10
2017-10-17T20:21:40.020Z,11.02
2017-10-17T20:24:09.409Z,11.15
2017-10-17T20:26:37.442Z,11.77
2017-10-17T20:29:05.552Z,12.30
2017-10-17T20:31:33.653Z,11.40
2017-10-17T20:34:02.544Z,10.98
2017-10-17T20:36:32.021Z,11.57
2017-10-17T20:39:00.045Z,12.30
2017-10-17T20:41:29.499Z,10.57
2017-10-17T20:43:59.827Z,12.15
2017-10-17T20:46:28.601Z,10.80
2017-10-17T20:48:56.728Z,10.50
2017-10-17T20:51:26.184Z,12.30
2017-10-17T20:53:54.196Z,10.50
2017-10-17T20:56:23.098Z,10.45
2017-10-17T20:58:51.591Z,10.93
2017-10-17T21:01:19.690Z,10.00
2017-10-17T21:03:47.804Z,11.45
2017-10-17T21:06:15.920Z,11.90
2017-10-17T21:08:44.019Z,10.93
2017-10-17T21:11:12.913Z,10.65
2017-10-17T21:13:41.015Z,11.50
2017-10-17T21:16:10.261Z,10.25
2017-10-17T21:18:38.393Z,10.63
2017-10-17T21:21:06.519Z,10.57
2017-10-17T21:23:34.638Z,12.18
2017-10-17T21:26:03.918Z,11.88
2017-10-17T21:28:32.025Z,11.32
2017-10-17T21:31:00.917Z,10.90
2017-10-17T21:33:30.884Z,10.60
2017-10-17T21:35:58.989Z,12.50
2017-10-17T21:38:27.867Z,11.45
2017-10-17T21:40:55.972Z,11.77
2017-10-17T21:43:24.858Z,12.57
2017-10-17T21:45:52.957Z,11.60
2017-10-17T21:48:22.441Z,12.52
2017-10-17T21:50:50.452Z,12.75
2017-10-17T21:53:18.592Z,11.52
2017-10-17T21:55:46.700Z,13.18
2017-10-17T21:58:14.821Z,12.77
2017-10-17T22:00:51.949Z,11.23
2017-10-17T22:03:20.435Z,12.75
2017-10-17T22:05:48.547Z,13.50
2017-10-17T22:08:16.663Z,11.63
2017-10-17T22:10:46.274Z,10.38
2017-10-17T22:13:14.805Z,11.07
2017-10-17T22:15:42.909Z,11.12
2017-10-17T22:18:11.030Z,12.70
2017-10-17T22:20:39.137Z,11.10
2017-10-17T22:23:08.591Z,12.55
2017-10-17T22:25:36.597Z,11.20
2017-10-17T22:28:04.732Z,10.68
2017-10-17T22:30:33.262Z,11.43
2017-10-17T22:33:01.357Z,12.65
2017-10-17T22:35:29.517Z,12.27
2017-10-17T22:37:59.375Z,13.10
2017-10-17T22:40:27.489Z,13.77
2017-10-17T22:42:55.597Z,14.20
2017-10-17T22:45:23.755Z,13.73
2017-10-17T22:47:51.842Z,12.93
2017-10-17T22:50:19.992Z,13.73
2017-10-17T22:52:48.109Z,13.82
2017-10-17T22:55:16.210Z,13.40
2017-10-17T22:57:44.320Z,14.50
2017-10-17T23:00:13.214Z,12.80
2017-10-17T23:02:41.320Z,14.87
2017-10-17T23:05:09.445Z,14.15
2017-10-17T23:07:37.539Z,15.55
2017-10-17T23:10:05.638Z,14.43
2017-10-17T23:12:33.752Z,13.98
2017-10-17T23:15:03.035Z,14.68
2017-10-17T23:17:38.223Z,14.60
2017-10-17T23:20:19.826Z,14.27
2017-10-17T23:22:47.974Z,13.75
2017-10-17T23:25:17.223Z,13.40
2017-10-17T23:27:45.340Z,13.52
2017-10-17T23:30:14.975Z,13.95
2017-10-17T23:32:43.100Z,13.73
2017-10-17T23:35:11.203Z,13.30
2017-10-17T23:37:39.315Z,12.95
2017-10-17T23:40:08.573Z,14.20
2017-10-17T23:42:38.044Z,15.18
2017-10-17T23:45:06.056Z,14.85
2017-10-17T23:47:34.165Z,14.85
2017-10-17T23:50:02.308Z,13.90
2017-10-17T23:52:30.439Z,15.45
2017-10-17T23:54:58.518Z,15.98
2017-10-17T23:57:26.659Z,15.02
2017-10-17T23:59:55.519Z,16.30
